EYVI - UMKK

Guest
Details From EYVI - VILNIUS INTL
To UMKK - KHRABROVO
Flight Number -
Tags generated
Created
Modified
Stats Distance 164 nm / 303 km
Max Altitude 18,300 ft / 5,578 m
Waypoints 3
Social Downloads 0
Likes 0
Share VATSIM

Download

Looking for another format? Having issues loading an existing format? Contact us
Advertisement - Login to hide

Notes

Basic altitude profile: - Ascent Rate: 2500ft/min - Ascent Speed: 250kts - Cruise Altitude: 35000ft - Cruise Speed: 420kts - Descent Rate: 1500ft/min - Descent Speed: 250kts Options: - Use NATs: yes - Use PACOTS: yes - Use low airways: yes - Use high airways: yes

Route

EYVI VAKAL UMKK

ID Type Via Altitude Latitude Longitude Leg Dist Tot Dist Heading (true) Name
O EYVI APT - 0 ft / 0 m 54.63417˚ 25.28580˚ - 0 nm - VILNIUS INTL
VAKAL FIX - 18,300 ft / 5,578 m 54.86972˚ 23.20806˚ 73 nm 73 nm 282° / 280° -
O UMKK APT - 0 ft / 0 m 54.89005˚ 20.59264˚ 90 nm 163 nm 272° / 270° KHRABROVO

Altitude Profile

Weather

Temperature
Clouds and Precipitation
Forecast for 2017-01-16 18:00 UTC. Updated 2 hours ago
Winds

EYVI

Details ICAO EYVI (VNO)
Name VILNIUS INTL
Region Lithuania
Timezone Europe/Vilnius (UTC+2.0)
Stats Elevation 646 ft / 197 m (AMSL)
Location 54.634166° 25.285796°
Runways 1
Magnetic Variation 7.349° E

METAR

EYVI 161650Z 17004KT 2100 BR OVC002 M06/M07 Q1024 R19/5/0294 TEMPO 1500 BR

Decode

TAF

TAF TAF EYVI 161100Z 1612/1712 VRB04KT 3000 BR OVC005 TEMPO 1612/1623 0600 FZFG VV002 TEMPO 1623/1712 0400 FZFG VV002

Decode

Departure Runways

ID Width Length Bearing (true) Bearing (mag) Surface Threshold Offset Overrun Length
02 164 ft / 50 m 8,210 ft / 2,502 m 21.89° 14.54° Asphalt 0 ft / 0 m 151 ft / 46 m
20 164 ft / 50 m 8,210 ft / 2,502 m 201.91° 194.56° Asphalt 0 ft / 0 m 0 ft / 0 m

UMKK

Details ICAO UMKK (KGD)
Name KHRABROVO
Region Belarus and Russia (Kaliningrad Oblast)
Timezone Europe/Kaliningrad (UTC+2.0)
Stats Elevation 42 ft / 13 m (AMSL)
Location 54.890049° 20.592635°
Runways 1
Magnetic Variation 6.041° E

METAR

UMKK 161700Z 36001MPS 2600 BR BKN004 OVC017 M01/M01 Q1024 R24/29//50 NOSIG RMK QBB120 OBST OBSC QFE767/1023

Decode

TAF

TAF AMD UMKK 161620Z 1616/1715 36002MPS 2000 BR BKN003 OVC005 TEMPO 1616/1709 04005MPS 0300 -SN FZFG VV002 FM170900 18002MPS 4000 BR SCT004 BKN007

Decode

Destination Runways

ID Width Length Bearing (true) Bearing (mag) Surface Threshold Offset Overrun Length
06 148 ft / 45 m 8,180 ft / 2,493 m 65.93° 59.89° Concrete 0 ft / 0 m 0 ft / 0 m
24 148 ft / 45 m 8,180 ft / 2,493 m 245.96° 239.92° Concrete 0 ft / 0 m 0 ft / 0 m

Approach Navaids

Runway Type Ident Frequency Range Bearing (true) Bearing (mag) Slope Elevation
24 Localiser IKR 109.50 MHz 18 nm / 33 km 245.00° 238.95° - 42 ft / 13 m (AMSL)
24 Glidescope IKR 109.50 MHz 10 nm / 19 km 245.95° 239.91° 2.70° 42 ft / 13 m (AMSL)